Time;durP1;ratioP1;P1;durP2;ratioP2;P2;SDS_P1;SDS_P2;PMS_P1;PMS_P2;Temp;Humidity;BMP_temperature;BMP_pressure;BME280_temperature;BME280_humidity;BME280_pressure;Samples;Min_cycle;Max_cycle;Signal;HPM_P1;HPM_P2
2021/03/10 00:01:14;;;;;;;14.23;8.37;;;;;;;;;;6342812;22;20007;-80
2021/03/10 00:03:40;;;;;;;16.77;7.77;;;;;;;;;;6348555;22;20031;-79
2021/03/10 00:06:06;;;;;;;11.27;6.90;;;;;;;;;;6372518;22;20007;-80
2021/03/10 00:08:32;;;;;;;14.43;8.80;;;;;;;;;;6344757;22;20332;-79
2021/03/10 00:10:58;;;;;;;17.40;9.10;;;;;;;;;;6345937;22;20003;-80
2021/03/10 00:13:24;;;;;;;14.83;8.27;;;;;;;;;;6346251;22;20053;-79
2021/03/10 00:15:50;;;;;;;16.97;6.93;;;;;;;;;;6371699;22;20030;-79
2021/03/10 00:18:17;;;;;;;13.60;8.53;;;;;;;;;;6347138;22;19999;-80
2021/03/10 00:20:43;;;;;;;14.30;8.80;;;;;;;;;;6373737;22;20436;-79
2021/03/10 00:23:09;;;;;;;15.33;7.90;;;;;;;;;;6356124;22;20079;-80
2021/03/10 00:25:35;;;;;;;14.77;8.70;;;;;;;;;;6379474;22;20412;-79
2021/03/10 00:28:01;;;;;;;17.57;8.63;;;;;;;;;;6383534;22;20001;-79
2021/03/10 00:30:27;;;;;;;11.30;7.33;;;;;;;;;;6357782;22;20089;-79
2021/03/10 00:32:53;;;;;;;16.30;8.70;;;;;;;;;;6359989;22;20025;-80
2021/03/10 00:35:19;;;;;;;14.43;9.20;;;;;;;;;;6359982;22;20002;-79
2021/03/10 00:37:45;;;;;;;17.90;9.17;;;;;;;;;;6387301;22;20058;-79
2021/03/10 00:40:11;;;;;;;15.87;8.30;;;;;;;;;;6387472;22;20009;-79
2021/03/10 00:42:37;;;;;;;15.23;8.60;;;;;;;;;;6358441;22;20017;-79
2021/03/10 00:45:03;;;;;;;15.77;8.70;;;;;;;;;;6358689;22;20046;-79
2021/03/10 00:47:29;;;;;;;13.87;7.70;;;;;;;;;;6383843;22;20005;-78
2021/03/10 00:49:57;;;;;;;12.23;6.27;;;;;;;;;;6356584;22;20002;-79
2021/03/10 00:52:23;;;;;;;12.87;7.97;;;;;;;;;;6347132;22;20006;-79
2021/03/10 00:54:49;;;;;;;12.20;7.13;;;;;;;;;;6349170;22;20006;-79
2021/03/10 00:57:15;;;;;;;13.40;7.10;;;;;;;;;;6373837;22;20006;-79
2021/03/10 00:59:41;;;;;;;14.33;7.47;;;;;;;;;;6348942;22;20013;-79
2021/03/10 01:02:07;;;;;;;15.67;7.40;;;;;;;;;;6348995;22;20018;-79
2021/03/10 01:04:33;;;;;;;17.07;7.97;;;;;;;;;;6349545;22;20007;-79
2021/03/10 01:06:59;;;;;;;14.30;7.97;;;;;;;;;;6378220;22;20002;-79
2021/03/10 01:09:26;;;;;;;11.87;7.17;;;;;;;;;;6376935;22;20036;-79
2021/03/10 01:11:52;;;;;;;9.97;7.00;;;;;;;;;;6352025;22;20006;-79
2021/03/10 01:14:18;;;;;;;13.10;8.00;;;;;;;;;;6385289;22;20017;-79
2021/03/10 01:16:44;;;;;;;13.07;8.20;;;;;;;;;;6382490;22;20020;-79
2021/03/10 01:19:11;;;;;;;11.23;8.33;;;;;;;;;;6383818;22;20006;-79
2021/03/10 01:21:37;;;;;;;15.10;8.60;;;;;;;;;;6382113;22;20017;-78
2021/03/10 01:24:04;;;;;;;17.90;9.70;;;;;;;;;;6355985;22;20025;-79
2021/03/10 01:26:30;;;;;;;13.43;8.27;;;;;;;;;;6382912;22;20003;-79
2021/03/10 01:28:56;;;;;;;15.33;9.50;;;;;;;;;;6347576;22;20015;-79
2021/03/10 01:31:22;;;;;;;14.27;8.80;;;;;;;;;;6347044;22;20021;-78
2021/03/10 01:33:48;;;;;;;17.87;9.17;;;;;;;;;;6347005;22;20002;-79
2021/03/10 01:36:14;;;;;;;15.97;9.60;;;;;;;;;;6347328;22;20017;-79
2021/03/10 01:38:40;;;;;;;12.33;8.43;;;;;;;;;;6374137;22;20424;-79
2021/03/10 01:41:06;;;;;;;17.23;9.87;;;;;;;;;;6347910;22;20041;-79
2021/03/10 01:43:32;;;;;;;12.73;9.17;;;;;;;;;;6346762;22;20064;-79
2021/03/10 01:45:58;;;;;;;18.47;11.10;;;;;;;;;;6374440;22;20010;-79
2021/03/10 01:48:24;;;;;;;14.40;9.23;;;;;;;;;;6373653;22;20292;-78
2021/03/10 01:50:51;;;;;;;16.63;10.97;;;;;;;;;;6373719;22;20030;-79
2021/03/10 01:53:17;;;;;;;16.83;11.63;;;;;;;;;;6347854;22;20032;-79
2021/03/10 01:55:44;;;;;;;21.97;13.73;;;;;;;;;;6374126;22;20354;-79
2021/03/10 01:58:10;;;;;;;24.67;14.77;;;;;;;;;;6374094;22;20004;-79
2021/03/10 02:00:36;;;;;;;25.17;14.93;;;;;;;;;;6375677;22;20025;-79
2021/03/10 02:03:02;;;;;;;21.10;14.67;;;;;;;;;;6349317;22;20416;-79
2021/03/10 02:05:29;;;;;;;27.00;14.57;;;;;;;;;;6349765;22;20316;-79
2021/03/10 02:07:55;;;;;;;31.40;17.23;;;;;;;;;;6380018;22;20022;-79
2021/03/10 02:10:30;;;;;;;33.03;18.07;;;;;;;;;;6381210;22;20012;-78
2021/03/10 02:13:05;;;;;;;33.23;17.73;;;;;;;;;;6376865;22;20339;-79
2021/03/10 02:15:40;;;;;;;23.37;16.97;;;;;;;;;;6372648;22;20010;-79
2021/03/10 02:18:11;;;;;;;26.77;17.53;;;;;;;;;;6373825;22;20013;-79
2021/03/10 02:20:39;;;;;;;32.33;18.97;;;;;;;;;;6373164;22;20089;-79
2021/03/10 02:23:23;;;;;;;33.77;19.33;;;;;;;;;;6368129;22;20026;-80
2021/03/10 02:25:58;;;;;;;31.30;18.35;;;;;;;;;;6367165;22;20093;-79
2021/03/10 02:28:24;;;;;;;29.17;19.33;;;;;;;;;;6367971;22;20014;-79
2021/03/10 02:30:51;;;;;;;36.13;20.83;;;;;;;;;;6341862;22;20007;-80
2021/03/10 02:33:19;;;;;;;29.87;19.70;;;;;;;;;;6367649;22;20093;-80
2021/03/10 02:35:47;;;;;;;38.43;21.17;;;;;;;;;;6367505;22;20085;-79
2021/03/10 02:38:21;;;;;;;36.03;22.37;;;;;;;;;;6368560;22;20306;-80
2021/03/10 02:40:48;;;;;;;36.90;22.05;;;;;;;;;;6344728;22;20003;-79
2021/03/10 02:43:14;;;;;;;35.73;21.70;;;;;;;;;;6370432;22;20089;-79
2021/03/10 02:45:41;;;;;;;39.00;22.83;;;;;;;;;;6344924;22;20078;-79
2021/03/10 02:48:07;;;;;;;37.03;22.83;;;;;;;;;;6346261;22;20082;-79
2021/03/10 02:50:34;;;;;;;40.17;23.60;;;;;;;;;;6346567;22;20018;-79
2021/03/10 02:53:02;;;;;;;44.00;25.43;;;;;;;;;;6344617;22;20011;-79
2021/03/10 02:55:28;;;;;;;32.00;22.23;;;;;;;;;;6342520;22;20328;-80
2021/03/10 02:57:55;;;;;;;35.83;21.77;;;;;;;;;;6342891;22;19999;-79
2021/03/10 03:00:22;;;;;;;38.50;23.57;;;;;;;;;;6370564;22;20105;-79
2021/03/10 03:02:48;;;;;;;36.93;21.83;;;;;;;;;;6370352;22;20082;-79
2021/03/10 03:05:14;;;;;;;32.63;20.87;;;;;;;;;;6343053;22;20451;-79
2021/03/10 03:07:41;;;;;;;38.47;24.10;;;;;;;;;;6342199;22;20010;-79
2021/03/10 03:10:09;;;;;;;40.23;25.10;;;;;;;;;;6340843;22;20013;-79
2021/03/10 03:12:35;;;;;;;42.47;25.73;;;;;;;;;;6367390;22;20021;-79
2021/03/10 03:15:02;;;;;;;33.17;22.77;;;;;;;;;;6341627;22;20356;-79
2021/03/10 03:17:30;;;;;;;39.40;25.67;;;;;;;;;;6366821;22;20011;-80
2021/03/10 03:19:56;;;;;;;39.23;26.27;;;;;;;;;;6367787;22;20007;-78
2021/03/10 03:22:24;;;;;;;41.13;29.07;;;;;;;;;;6341602;22;20439;-79
2021/03/10 03:24:51;;;;;;;55.13;31.67;;;;;;;;;;6367517;22;20493;-79
2021/03/10 03:27:25;;;;;;;54.73;34.27;;;;;;;;;;6342172;22;20391;-79
2021/03/10 03:30:00;;;;;;;58.53;35.40;;;;;;;;;;6369325;22;20003;-79
2021/03/10 03:32:28;;;;;;;55.40;33.10;;;;;;;;;;6344105;22;20370;-79
2021/03/10 03:34:55;;;;;;;56.33;36.90;;;;;;;;;;6369393;22;19998;-78
2021/03/10 03:37:22;;;;;;;50.13;33.50;;;;;;;;;;6348891;22;20013;-79
2021/03/10 03:39:49;;;;;;;59.20;35.47;;;;;;;;;;6372707;22;20003;-79
2021/03/10 03:42:16;;;;;;;56.67;35.37;;;;;;;;;;6367196;22;20371;-79
2021/03/10 03:44:42;;;;;;;58.10;34.00;;;;;;;;;;6340783;22;20007;-80
2021/03/10 03:47:08;;;;;;;50.57;30.93;;;;;;;;;;6341671;22;20072;-79
2021/03/10 03:49:34;;;;;;;59.57;38.47;;;;;;;;;;6341805;22;19999;-79
2021/03/10 03:52:00;;;;;;;53.77;35.37;;;;;;;;;;6366622;22;20355;-79
2021/03/10 03:54:26;;;;;;;63.97;39.10;;;;;;;;;;6340262;22;20011;-79
2021/03/10 03:56:52;;;;;;;61.57;37.90;;;;;;;;;;6342237;22;19999;-80
2021/03/10 03:59:18;;;;;;;64.37;39.90;;;;;;;;;;6341105;22;20011;-79
2021/03/10 04:01:44;;;;;;;70.60;42.70;;;;;;;;;;6341534;22;20015;-79
2021/03/10 04:04:10;;;;;;;62.20;40.27;;;;;;;;;;6340558;22;20417;-79
2021/03/10 04:06:36;;;;;;;62.33;41.47;;;;;;;;;;6340634;22;20026;-79
2021/03/10 04:09:02;;;;;;;66.50;42.67;;;;;;;;;;6340679;22;20455;-79
2021/03/10 04:11:28;;;;;;;63.40;43.30;;;;;;;;;;6341262;22;20328;-80
2021/03/10 04:13:55;;;;;;;62.23;39.17;;;;;;;;;;6340346;22;20425;-79
2021/03/10 04:16:20;;;;;;;67.70;40.23;;;;;;;;;;6340318;22;20325;-79
2021/03/10 04:18:46;;;;;;;73.03;44.47;;;;;;;;;;6339676;22;20011;-81
2021/03/10 04:21:12;;;;;;;67.63;37.57;;;;;;;;;;6339796;22;20074;-79
2021/03/10 04:23:38;;;;;;;69.47;41.87;;;;;;;;;;6347477;22;20450;-79
2021/03/10 04:26:04;;;;;;;67.27;40.90;;;;;;;;;;6372244;22;20011;-80
2021/03/10 04:28:30;;;;;;;63.13;38.90;;;;;;;;;;6318863;22;20013;-79
2021/03/10 04:30:56;;;;;;;65.30;41.83;;;;;;;;;;6345455;22;20059;-79
2021/03/10 04:33:22;;;;;;;61.60;41.00;;;;;;;;;;6374075;22;20011;-79
2021/03/10 04:35:48;;;;;;;64.37;42.47;;;;;;;;;;6347927;22;20062;-79
2021/03/10 04:38:14;;;;;;;59.07;38.33;;;;;;;;;;6375757;22;20006;-79
2021/03/10 04:40:40;;;;;;;65.10;42.57;;;;;;;;;;6373742;22;20010;-79
2021/03/10 04:43:06;;;;;;;65.10;40.50;;;;;;;;;;6347093;22;20450;-79
2021/03/10 04:45:32;;;;;;;74.73;47.13;;;;;;;;;;6347974;22;20030;-80
2021/03/10 04:47:58;;;;;;;62.63;41.43;;;;;;;;;;6347270;22;20006;-79
2021/03/10 04:50:24;;;;;;;67.33;41.90;;;;;;;;;;6376242;22;20424;-80
2021/03/10 04:52:50;;;;;;;62.77;38.50;;;;;;;;;;6374683;22;20017;-79
2021/03/10 04:55:16;;;;;;;73.23;43.90;;;;;;;;;;6375325;22;20404;-80
2021/03/10 04:57:42;;;;;;;67.63;41.33;;;;;;;;;;6347451;22;20030;-79
2021/03/10 05:00:10;;;;;;;68.67;41.53;;;;;;;;;;6347203;22;20010;-79
2021/03/10 05:02:36;;;;;;;60.97;38.73;;;;;;;;;;6374800;22;20046;-79
2021/03/10 05:05:03;;;;;;;63.60;41.07;;;;;;;;;;6373192;22;20008;-79
2021/03/10 05:07:29;;;;;;;68.87;44.80;;;;;;;;;;6373973;22;20097;-79
2021/03/10 05:09:55;;;;;;;56.33;36.50;;;;;;;;;;6347046;22;20018;-79
2021/03/10 05:12:21;;;;;;;70.23;43.20;;;;;;;;;;6347361;22;20054;-79
2021/03/10 05:14:47;;;;;;;65.30;43.20;;;;;;;;;;6346424;22;20022;-79
2021/03/10 05:17:13;;;;;;;62.47;41.53;;;;;;;;;;6345969;22;20002;-80
2021/03/10 05:19:39;;;;;;;65.40;41.10;;;;;;;;;;6346536;22;20068;-79
2021/03/10 05:22:05;;;;;;;75.27;44.17;;;;;;;;;;6373813;22;20014;-79
2021/03/10 05:24:31;;;;;;;62.03;40.37;;;;;;;;;;6374610;22;20042;-79
2021/03/10 05:26:57;;;;;;;63.23;41.40;;;;;;;;;;6346434;22;20003;-79
2021/03/10 05:29:23;;;;;;;66.77;42.00;;;;;;;;;;6375542;22;20006;-79
2021/03/10 05:31:49;;;;;;;59.67;38.10;;;;;;;;;;6347586;22;20019;-79
2021/03/10 05:34:15;;;;;;;62.67;39.03;;;;;;;;;;6347084;22;20013;-79
2021/03/10 05:36:41;;;;;;;61.77;39.93;;;;;;;;;;6376255;22;19998;-79
2021/03/10 05:39:07;;;;;;;58.70;32.73;;;;;;;;;;6349332;22;20102;-80
2021/03/10 05:41:33;;;;;;;70.57;47.93;;;;;;;;;;6375073;22;20010;-79
2021/03/10 05:44:00;;;;;;;69.13;40.03;;;;;;;;;;6375308;22;20021;-79
2021/03/10 05:46:26;;;;;;;69.87;42.87;;;;;;;;;;6378203;22;20006;-80
2021/03/10 05:48:52;;;;;;;60.60;34.77;;;;;;;;;;6379285;22;20003;-79
2021/03/10 05:51:19;;;;;;;58.33;38.20;;;;;;;;;;6351258;22;20022;-79
2021/03/10 05:53:46;;;;;;;61.43;37.20;;;;;;;;;;6379509;22;20009;-79
2021/03/10 05:56:14;;;;;;;56.47;36.70;;;;;;;;;;6383170;22;20006;-79
2021/03/10 05:58:40;;;;;;;61.10;37.83;;;;;;;;;;6377680;22;20002;-79
2021/03/10 06:01:06;;;;;;;62.97;37.93;;;;;;;;;;6380295;22;20036;-78
2021/03/10 06:03:32;;;;;;;60.73;38.80;;;;;;;;;;6355558;22;19998;-79
2021/03/10 06:06:02;;;;;;;60.67;34.53;;;;;;;;;;6354870;22;20010;-79
2021/03/10 06:08:33;;;;;;;60.27;38.47;;;;;;;;;;6376586;22;19994;-78
2021/03/10 06:10:59;;;;;;;64.47;37.93;;;;;;;;;;6374789;22;20030;-79
2021/03/10 06:13:26;;;;;;;62.67;39.03;;;;;;;;;;6377191;22;19999;-78
2021/03/10 06:15:53;;;;;;;73.37;41.10;;;;;;;;;;6377031;22;20003;-78
2021/03/10 06:18:30;;;;;;;70.03;38.77;;;;;;;;;;6376696;22;20013;-78
2021/03/10 06:21:06;;;;;;;63.17;37.77;;;;;;;;;;6382672;22;20323;-79
2021/03/10 06:23:32;;;;;;;52.23;36.20;;;;;;;;;;6379614;22;20002;-78
2021/03/10 06:25:58;;;;;;;59.23;37.00;;;;;;;;;;6378763;22;20034;-78
2021/03/10 06:28:40;;;;;;;63.03;40.63;;;;;;;;;;6355350;22;20002;-78
2021/03/10 06:31:36;;;;;;;59.87;39.80;;;;;;;;;;6376894;22;20018;-79
2021/03/10 06:34:03;;;;;;;59.28;35.58;;;;;;;;;;6323128;22;20087;-79
2021/03/10 06:36:31;;;;;;;63.43;38.33;;;;;;;;;;6379700;22;20002;-79
2021/03/10 06:38:57;;;;;;;62.73;38.47;;;;;;;;;;6377734;22;20014;-79
2021/03/10 06:41:29;;;;;;;51.17;34.07;;;;;;;;;;6350878;22;20063;-79
2021/03/10 06:43:55;;;;;;;66.97;42.20;;;;;;;;;;6380771;22;20480;-79
2021/03/10 06:46:21;;;;;;;54.67;35.40;;;;;;;;;;6354117;22;20022;-79
2021/03/10 06:48:53;;;;;;;61.43;38.67;;;;;;;;;;6382789;22;20005;-78
2021/03/10 06:51:20;;;;;;;60.17;37.03;;;;;;;;;;6381486;22;20018;-78
2021/03/10 06:53:46;;;;;;;53.87;34.83;;;;;;;;;;6382122;22;20036;-79
2021/03/10 06:56:19;;;;;;;56.73;31.83;;;;;;;;;;6353910;22;20017;-80
2021/03/10 06:58:54;;;;;;;63.83;37.73;;;;;;;;;;6375973;22;20002;-79
2021/03/10 07:01:21;;;;;;;62.37;35.67;;;;;;;;;;6376040;22;20014;-79
2021/03/10 07:03:47;;;;;;;62.83;35.47;;;;;;;;;;6379824;22;20018;-78
2021/03/10 07:06:15;;;;;;;62.47;39.50;;;;;;;;;;6383159;22;20431;-79
2021/03/10 07:08:42;;;;;;;59.60;35.67;;;;;;;;;;6383763;22;19999;-79
2021/03/10 07:11:08;;;;;;;60.83;35.33;;;;;;;;;;6384404;22;20415;-78
2021/03/10 07:13:34;;;;;;;62.03;39.80;;;;;;;;;;6355766;22;20034;-78
2021/03/10 07:16:01;;;;;;;67.57;43.40;;;;;;;;;;6354034;22;20442;-78
2021/03/10 07:18:28;;;;;;;64.43;40.00;;;;;;;;;;6355243;22;20010;-78
2021/03/10 07:20:55;;;;;;;66.13;38.90;;;;;;;;;;6376122;22;20438;-79
2021/03/10 07:23:21;;;;;;;65.07;42.07;;;;;;;;;;6345030;22;20090;-79
2021/03/10 07:25:49;;;;;;;59.93;33.43;;;;;;;;;;6373067;22;20018;-79
2021/03/10 07:28:28;;;;;;;69.07;42.00;;;;;;;;;;6371465;22;20002;-79
2021/03/10 07:30:54;;;;;;;69.23;42.47;;;;;;;;;;6370801;22;20018;-79
2021/03/10 07:33:21;;;;;;;61.60;35.37;;;;;;;;;;6371101;22;20003;-79
2021/03/10 07:35:53;;;;;;;63.93;43.47;;;;;;;;;;6345543;22;20085;-79
2021/03/10 07:38:20;;;;;;;73.03;45.40;;;;;;;;;;6372279;22;19994;-79
2021/03/10 07:40:57;;;;;;;66.53;40.80;;;;;;;;;;6370057;22;20041;-79
2021/03/10 07:43:42;;;;;;;75.90;46.50;;;;;;;;;;6370999;22;20013;-78
2021/03/10 07:46:39;;;;;;;65.53;41.83;;;;;;;;;;6371937;22;20070;-78
2021/03/10 07:49:16;;;;;;;65.20;43.40;;;;;;;;;;6320131;22;20010;-78
2021/03/10 07:51:42;;;;;;;71.47;45.63;;;;;;;;;;6371309;22;20055;-79
2021/03/10 07:54:18;;;;;;;66.07;36.13;;;;;;;;;;6371745;22;20335;-79
2021/03/10 07:56:44;;;;;;;57.23;36.10;;;;;;;;;;6371278;22;20013;-78
2021/03/10 07:59:14;;;;;;;66.07;40.73;;;;;;;;;;6371303;22;20013;-78
2021/03/10 08:01:40;;;;;;;68.53;42.27;;;;;;;;;;6373070;22;20018;-78
2021/03/10 08:04:08;;;;;;;67.60;44.37;;;;;;;;;;6345165;22;20021;-79
2021/03/10 08:06:43;;;;;;;61.17;43.70;;;;;;;;;;6344036;22;20007;-79
2021/03/10 08:09:09;;;;;;;67.03;44.17;;;;;;;;;;6371910;22;19994;-79
2021/03/10 08:11:36;;;;;;;54.77;32.00;;;;;;;;;;6372365;22;20006;-79
2021/03/10 08:14:02;;;;;;;68.20;42.87;;;;;;;;;;6371359;22;20010;-78
2021/03/10 08:16:29;;;;;;;69.23;42.80;;;;;;;;;;6345608;22;20002;-78
2021/03/10 08:18:55;;;;;;;68.87;45.03;;;;;;;;;;6374087;22;20031;-77
2021/03/10 08:21:21;;;;;;;68.00;42.50;;;;;;;;;;6349848;22;20098;-77
2021/03/10 08:23:48;;;;;;;59.83;37.13;;;;;;;;;;6372491;22;20025;-78
2021/03/10 08:26:17;;;;;;;62.03;40.77;;;;;;;;;;6373449;22;20019;-77
2021/03/10 08:28:43;;;;;;;67.20;40.03;;;;;;;;;;6375158;22;20010;-76
2021/03/10 08:31:10;;;;;;;70.40;39.90;;;;;;;;;;6373813;22;20025;-78
2021/03/10 08:33:46;;;;;;;61.53;41.60;;;;;;;;;;6377410;22;20014;-78
2021/03/10 08:36:13;;;;;;;63.03;41.70;;;;;;;;;;6370712;22;20003;-78
2021/03/10 08:38:39;;;;;;;53.13;30.83;;;;;;;;;;6370410;22;20010;-78
2021/03/10 08:41:06;;;;;;;59.13;41.17;;;;;;;;;;6370250;22;20058;-77
2021/03/10 08:43:33;;;;;;;62.20;38.57;;;;;;;;;;6371364;22;20098;-78
2021/03/10 08:45:59;;;;;;;70.80;43.33;;;;;;;;;;6370352;22;20416;-77
2021/03/10 08:48:30;;;;;;;70.57;40.53;;;;;;;;;;6370504;22;20094;-79
2021/03/10 08:50:59;;;;;;;65.13;38.23;;;;;;;;;;6370240;22;20448;-78
2021/03/10 08:53:25;;;;;;;71.37;40.77;;;;;;;;;;6370154;22;20002;-78
2021/03/10 08:55:51;;;;;;;49.70;30.20;;;;;;;;;;6344470;22;20067;-77
2021/03/10 08:58:18;;;;;;;51.00;32.37;;;;;;;;;;6344160;22;20152;-79
2021/03/10 09:00:45;;;;;;;59.27;39.67;;;;;;;;;;6371945;22;20124;-77
2021/03/10 09:03:12;;;;;;;65.60;39.77;;;;;;;;;;6344553;22;20006;-76
2021/03/10 09:05:39;;;;;;;58.67;38.90;;;;;;;;;;6344792;22;20033;-78
2021/03/10 09:08:07;;;;;;;60.70;38.27;;;;;;;;;;6370898;22;20011;-79
2021/03/10 09:10:33;;;;;;;54.60;39.67;;;;;;;;;;6371499;22;20017;-78
2021/03/10 09:12:59;;;;;;;60.00;36.27;;;;;;;;;;6371008;22;20006;-78
2021/03/10 09:15:26;;;;;;;60.63;41.23;;;;;;;;;;6374002;22;19999;-78
2021/03/10 09:17:52;;;;;;;53.50;37.60;;;;;;;;;;6346571;22;20010;-78
2021/03/10 09:20:27;;;;;;;53.03;33.70;;;;;;;;;;6349974;22;20014;-77
2021/03/10 09:22:53;;;;;;;;;;;;;;;;;;6377590;22;20006;-77
2021/03/10 09:25:23;;;;;;;53.57;36.83;;;;;;;;;;6343962;22;20327;-77
2021/03/10 09:27:49;;;;;;;60.90;34.17;;;;;;;;;;6366537;22;20014;-77
2021/03/10 09:30:27;;;;;;;53.77;35.73;;;;;;;;;;6340435;22;20330;-78
2021/03/10 09:32:53;;;;;;;49.43;36.17;;;;;;;;;;6371483;22;20061;-74
2021/03/10 09:35:19;;;;;;;54.20;36.70;;;;;;;;;;6341966;22;20007;-78
2021/03/10 09:37:55;;;;;;;52.40;34.50;;;;;;;;;;6366771;22;20328;-78
2021/03/10 09:40:24;;;;;;;53.13;35.37;;;;;;;;;;6368062;22;20003;-77
2021/03/10 09:43:01;;;;;;;45.57;36.07;;;;;;;;;;6341261;22;20484;-77
2021/03/10 09:45:28;;;;;;;51.37;32.10;;;;;;;;;;6366425;22;20010;-78
2021/03/10 09:47:54;;;;;;;47.77;33.43;;;;;;;;;;6367023;22;20089;-78
2021/03/10 09:50:40;;;;;;;46.00;32.07;;;;;;;;;;6344648;22;20007;-77
2021/03/10 09:53:16;;;;;;;45.80;33.27;;;;;;;;;;6333362;22;20007;-79
2021/03/10 09:55:43;;;;;;;39.30;32.93;;;;;;;;;;6366387;22;20072;-77
2021/03/10 09:58:10;;;;;;;46.87;32.83;;;;;;;;;;6342037;22;20425;-77
2021/03/10 10:00:37;;;;;;;41.37;33.00;;;;;;;;;;6369495;22;20019;-78
2021/03/10 10:03:03;;;;;;;39.07;31.43;;;;;;;;;;6344652;22;20014;-78
2021/03/10 10:05:30;;;;;;;38.33;27.07;;;;;;;;;;6369449;22;20007;-78
2021/03/10 10:07:57;;;;;;;47.20;33.20;;;;;;;;;;6346550;22;19998;-78
2021/03/10 10:10:26;;;;;;;46.83;32.60;;;;;;;;;;6346441;22;19998;-78
2021/03/10 10:12:54;;;;;;;35.97;27.33;;;;;;;;;;6373538;22;20428;-76
2021/03/10 10:15:30;;;;;;;45.40;29.03;;;;;;;;;;6347593;22;20348;-77
2021/03/10 10:17:57;;;;;;;35.33;21.73;;;;;;;;;;6347808;22;20024;-79
2021/03/10 10:20:24;;;;;;;40.37;30.17;;;;;;;;;;6373070;22;20365;-78
2021/03/10 10:22:50;;;;;;;40.03;29.93;;;;;;;;;;6350300;22;20323;-77
2021/03/10 10:25:17;;;;;;;36.50;28.87;;;;;;;;;;6351077;22;20022;-78
2021/03/10 10:27:44;;;;;;;33.13;25.30;;;;;;;;;;6379477;22;20014;-77
2021/03/10 10:30:10;;;;;;;40.43;28.40;;;;;;;;;;6356728;22;20011;-77
2021/03/10 10:32:36;;;;;;;39.87;28.47;;;;;;;;;;6382975;22;20023;-78
2021/03/10 10:35:03;;;;;;;35.63;27.07;;;;;;;;;;6373921;22;20006;-79
2021/03/10 10:37:29;;;;;;;37.03;26.23;;;;;;;;;;6345686;22;20021;-78
2021/03/10 10:39:55;;;;;;;34.90;28.43;;;;;;;;;;6348226;22;20003;-79
2021/03/10 10:42:21;;;;;;;36.63;27.57;;;;;;;;;;6373183;22;20030;-78
2021/03/10 10:44:47;;;;;;;34.50;27.50;;;;;;;;;;6350170;22;20018;-78
2021/03/10 10:47:13;;;;;;;32.00;24.57;;;;;;;;;;6352428;22;19999;-78
2021/03/10 10:49:39;;;;;;;35.50;25.73;;;;;;;;;;6350212;22;20003;-78
2021/03/10 10:52:05;;;;;;;32.43;25.83;;;;;;;;;;6377370;22;20014;-77
2021/03/10 10:54:31;;;;;;;38.03;25.67;;;;;;;;;;6342112;22;20086;-78
2021/03/10 10:56:57;;;;;;;37.53;23.43;;;;;;;;;;6342584;22;20030;-79
2021/03/10 10:59:23;;;;;;;37.00;26.20;;;;;;;;;;6341873;22;20007;-78
2021/03/10 11:01:49;;;;;;;31.50;22.03;;;;;;;;;;6341732;22;20470;-78
2021/03/10 11:04:15;;;;;;;33.73;22.47;;;;;;;;;;6369906;22;20046;-78
2021/03/10 11:06:41;;;;;;;34.63;24.17;;;;;;;;;;6345183;22;20002;-79
2021/03/10 11:09:07;;;;;;;28.03;17.87;;;;;;;;;;6341488;22;20328;-77
2021/03/10 11:11:33;;;;;;;32.93;23.97;;;;;;;;;;6340870;22;20023;-79
2021/03/10 11:13:59;;;;;;;35.40;24.80;;;;;;;;;;6343030;22;20362;-78
2021/03/10 11:16:25;;;;;;;37.80;24.83;;;;;;;;;;6342003;22;20085;-79
2021/03/10 11:18:51;;;;;;;37.60;25.30;;;;;;;;;;6342415;22;20013;-79
2021/03/10 11:21:17;;;;;;;35.57;24.53;;;;;;;;;;6369995;22;20408;-79
2021/03/10 11:23:43;;;;;;;33.77;27.47;;;;;;;;;;6349210;22;20020;-78
2021/03/10 11:26:10;;;;;;;31.63;22.33;;;;;;;;;;6349886;22;20011;-79
2021/03/10 11:28:37;;;;;;;31.77;24.70;;;;;;;;;;6376430;22;20199;-78
2021/03/10 11:31:03;;;;;;;40.17;25.87;;;;;;;;;;6347691;22;20101;-78
2021/03/10 11:33:29;;;;;;;30.83;25.20;;;;;;;;;;6352374;22;20033;-77
2021/03/10 11:35:55;;;;;;;38.00;25.93;;;;;;;;;;6375808;22;19999;-79
2021/03/10 11:38:21;;;;;;;33.30;27.33;;;;;;;;;;6375257;22;20038;-78
2021/03/10 11:40:47;;;;;;;35.57;25.53;;;;;;;;;;6372477;22;20039;-79
2021/03/10 11:43:16;;;;;;;34.23;26.53;;;;;;;;;;6373505;22;20081;-79
2021/03/10 11:45:42;;;;;;;33.43;26.93;;;;;;;;;;6347391;22;20420;-78
2021/03/10 11:48:08;;;;;;;29.47;26.27;;;;;;;;;;6374618;22;20002;-78
2021/03/10 11:50:36;;;;;;;33.00;25.93;;;;;;;;;;6349343;22;20105;-79
2021/03/10 11:53:03;;;;;;;38.27;25.43;;;;;;;;;;6378147;22;20430;-79
2021/03/10 11:55:29;;;;;;;38.40;25.13;;;;;;;;;;6350714;22;20002;-78
2021/03/10 11:57:55;;;;;;;35.90;26.70;;;;;;;;;;6350942;22;20010;-79
2021/03/10 12:00:21;;;;;;;35.23;24.30;;;;;;;;;;6376117;22;20015;-78
2021/03/10 12:02:47;;;;;;;32.50;25.00;;;;;;;;;;6349125;22;20432;-78
2021/03/10 12:05:13;;;;;;;33.93;25.73;;;;;;;;;;6350471;22;20014;-79
2021/03/10 12:07:39;;;;;;;34.70;24.70;;;;;;;;;;6375751;22;20014;-78
2021/03/10 12:10:06;;;;;;;33.13;25.77;;;;;;;;;;6348829;22;20006;-79
2021/03/10 12:12:32;;;;;;;37.50;26.27;;;;;;;;;;6375407;22;20010;-79
2021/03/10 12:14:58;;;;;;;31.03;24.20;;;;;;;;;;6351005;22;20013;-79
2021/03/10 12:17:24;;;;;;;33.13;24.97;;;;;;;;;;6380172;22;19994;-78
2021/03/10 12:19:50;;;;;;;37.77;27.90;;;;;;;;;;6378851;22;20010;-78
2021/03/10 12:22:16;;;;;;;32.53;25.77;;;;;;;;;;6378963;22;20014;-78
2021/03/10 12:24:45;;;;;;;32.53;22.77;;;;;;;;;;6351725;22;20018;-78
2021/03/10 12:27:11;;;;;;;33.17;24.67;;;;;;;;;;6353213;22;20007;-79
2021/03/10 12:29:37;;;;;;;29.70;21.93;;;;;;;;;;6378419;22;19994;-78
2021/03/10 12:32:03;;;;;;;31.80;20.37;;;;;;;;;;6378172;22;20007;-77
2021/03/10 12:34:29;;;;;;;31.53;24.73;;;;;;;;;;6377835;22;20074;-77
2021/03/10 12:36:56;;;;;;;31.90;21.90;;;;;;;;;;6379780;22;19995;-76
2021/03/10 12:39:22;;;;;;;34.43;22.87;;;;;;;;;;6382469;22;20007;-78
2021/03/10 12:41:48;;;;;;;27.80;24.47;;;;;;;;;;6381237;22;20014;-78
2021/03/10 12:44:15;;;;;;;28.77;23.53;;;;;;;;;;6357238;22;20003;-78
2021/03/10 12:46:41;;;;;;;34.47;24.57;;;;;;;;;;6360882;22;20032;-77
2021/03/10 12:49:07;;;;;;;38.20;25.27;;;;;;;;;;6382367;22;20010;-78
2021/03/10 12:51:33;;;;;;;35.80;24.60;;;;;;;;;;6353539;22;20058;-78
2021/03/10 12:53:59;;;;;;;33.23;25.03;;;;;;;;;;6358411;22;20006;-78
2021/03/10 12:56:25;;;;;;;33.33;26.23;;;;;;;;;;6355136;22;20044;-79
2021/03/10 12:58:51;;;;;;;32.77;22.70;;;;;;;;;;6355688;22;20006;-80
2021/03/10 13:01:17;;;;;;;31.83;25.07;;;;;;;;;;6357346;22;20029;-79
2021/03/10 13:03:43;;;;;;;27.87;22.30;;;;;;;;;;6360281;22;20010;-79
2021/03/10 13:06:09;;;;;;;29.80;20.93;;;;;;;;;;6358005;22;20006;-77
2021/03/10 13:08:35;;;;;;;33.97;24.63;;;;;;;;;;6358098;22;20032;-80
2021/03/10 13:11:01;;;;;;;30.17;25.60;;;;;;;;;;6359546;22;20026;-78
2021/03/10 13:13:27;;;;;;;30.77;24.90;;;;;;;;;;6360282;22;20006;-78
2021/03/10 13:21:05;;;;;;;34.43;26.63;;;;;;;;;;6343112;22;20059;-83
2021/03/10 13:23:31;;;;;;;39.93;29.10;;;;;;;;;;6393812;22;20011;-82
2021/03/10 13:25:57;;;;;;;38.33;29.47;;;;;;;;;;6384755;22;20007;-81
2021/03/10 13:28:23;;;;;;;41.57;27.57;;;;;;;;;;6351378;22;20010;-78
2021/03/10 13:30:49;;;;;;;38.40;25.47;;;;;;;;;;6350556;22;20010;-79
2021/03/10 13:33:16;;;;;;;47.00;28.90;;;;;;;;;;6350902;22;20002;-79
2021/03/10 13:35:43;;;;;;;35.13;26.10;;;;;;;;;;6377383;22;20444;-79
2021/03/10 13:38:09;;;;;;;38.87;26.27;;;;;;;;;;6376015;22;20002;-79
2021/03/10 13:40:35;;;;;;;33.23;22.47;;;;;;;;;;6381141;22;19999;-79
2021/03/10 13:43:02;;;;;;;35.40;23.90;;;;;;;;;;6349249;22;20030;-80
2021/03/10 13:45:30;;;;;;;35.80;24.50;;;;;;;;;;6376324;22;20010;-79
2021/03/10 13:47:56;;;;;;;28.27;22.13;;;;;;;;;;6350752;22;20019;-78
2021/03/10 13:50:23;;;;;;;26.17;21.57;;;;;;;;;;6349804;22;20329;-79
2021/03/10 13:52:49;;;;;;;31.53;20.87;;;;;;;;;;6378081;22;19990;-79
2021/03/10 13:55:15;;;;;;;26.03;21.57;;;;;;;;;;6375530;22;20014;-78
2021/03/10 13:57:41;;;;;;;29.17;22.20;;;;;;;;;;6349695;22;20017;-78
2021/03/10 14:00:07;;;;;;;22.33;14.03;;;;;;;;;;6352434;22;20093;-78
2021/03/10 14:02:33;;;;;;;26.53;19.87;;;;;;;;;;6350305;22;20002;-78
2021/03/10 14:04:59;;;;;;;24.67;18.30;;;;;;;;;;6350036;22;20032;-79
2021/03/10 14:07:25;;;;;;;18.13;15.80;;;;;;;;;;6352484;22;20419;-80
2021/03/10 14:09:51;;;;;;;30.17;16.43;;;;;;;;;;6350585;22;20089;-79
2021/03/10 14:12:18;;;;;;;26.13;17.80;;;;;;;;;;6350919;22;20014;-77
2021/03/10 14:14:44;;;;;;;21.30;17.87;;;;;;;;;;6352041;22;20017;-79
2021/03/10 14:17:10;;;;;;;24.17;19.60;;;;;;;;;;6376809;22;20007;-79
2021/03/10 14:19:36;;;;;;;28.53;21.70;;;;;;;;;;6354339;22;20014;-78
2021/03/10 14:22:02;;;;;;;28.20;22.00;;;;;;;;;;6351913;22;20087;-79
2021/03/10 14:24:28;;;;;;;31.17;22.13;;;;;;;;;;6347947;22;20014;-79